createdAt,value
2023-05-01T00:01:30.452Z,6.00
2023-05-01T00:03:57.221Z,7.25
2023-05-01T00:06:23.957Z,7.03
2023-05-01T00:08:50.728Z,6.88
2023-05-01T00:11:17.353Z,5.70
2023-05-01T00:13:44.006Z,9.50
2023-05-01T00:16:11.635Z,7.03
2023-05-01T00:18:38.760Z,5.10
2023-05-01T00:21:05.500Z,5.97
2023-05-01T00:23:31.998Z,5.40
2023-05-01T00:25:58.425Z,6.10
2023-05-01T00:28:24.864Z,6.82
2023-05-01T00:30:51.999Z,5.40
2023-05-01T00:33:19.627Z,6.95
2023-05-01T00:35:46.597Z,5.07
2023-05-01T00:38:13.132Z,5.80
2023-05-01T00:40:43.551Z,7.50
2023-05-01T00:43:10.353Z,6.47
2023-05-01T00:45:36.859Z,7.50
2023-05-01T00:48:03.471Z,8.27
2023-05-01T00:50:30.416Z,7.70
2023-05-01T00:52:57.184Z,7.03
2023-05-01T00:55:23.906Z,7.30
2023-05-01T00:57:50.829Z,7.45
2023-05-01T01:00:19.684Z,5.88
2023-05-01T01:02:47.117Z,6.80
2023-05-01T01:05:13.673Z,11.60
2023-05-01T01:07:42.376Z,9.02
2023-05-01T01:10:11.775Z,8.23
2023-05-01T01:12:47.176Z,6.00
2023-05-01T01:15:21.244Z,9.27
2023-05-01T01:18:06.901Z,10.65
2023-05-01T01:20:50.181Z,7.32
2023-05-01T01:23:22.736Z,6.43
2023-05-01T01:26:08.126Z,9.43
2023-05-01T01:29:04.287Z,5.50
2023-05-01T01:31:49.564Z,8.50
2023-05-01T01:34:24.567Z,7.15
2023-05-01T01:36:54.026Z,8.80
2023-05-01T01:39:39.331Z,9.05
2023-05-01T01:42:09.178Z,9.43
2023-05-01T01:44:43.337Z,7.20
2023-05-01T01:47:12.178Z,5.50
2023-05-01T01:49:41.174Z,6.85
2023-05-01T01:52:08.591Z,7.13
2023-05-01T01:54:40.728Z,9.40
2023-05-01T01:57:08.358Z,7.50
2023-05-01T01:59:35.375Z,7.38
2023-05-01T02:02:02.794Z,7.57
2023-05-01T02:04:30.148Z,5.95
2023-05-01T02:06:58.479Z,10.10
2023-05-01T02:09:26.833Z,6.88
2023-05-01T02:11:53.933Z,7.20
2023-05-01T02:14:21.911Z,10.23
2023-05-01T02:16:49.235Z,6.13
2023-05-01T02:19:16.946Z,8.63
2023-05-01T02:21:43.865Z,7.63
2023-05-01T02:24:10.653Z,5.78
2023-05-01T02:26:41.434Z,6.10
2023-05-01T02:29:07.901Z,12.00
2023-05-01T02:31:34.675Z,7.17
2023-05-01T02:34:01.133Z,11.25
2023-05-01T02:36:28.038Z,6.20
2023-05-01T02:38:54.821Z,11.10
2023-05-01T02:41:22.563Z,7.13
2023-05-01T02:43:51.824Z,8.17
2023-05-01T02:46:18.975Z,7.38
2023-05-01T02:48:46.231Z,8.23
2023-05-01T02:51:12.898Z,9.60
2023-05-01T02:53:40.368Z,7.35
2023-05-01T02:56:07.966Z,7.03
2023-05-01T02:58:34.804Z,6.72
2023-05-01T03:01:01.309Z,7.85
2023-05-01T03:03:28.023Z,7.47
2023-05-01T03:05:54.546Z,8.93
2023-05-01T03:08:21.213Z,9.00
2023-05-01T03:10:47.937Z,6.40
2023-05-01T03:13:14.395Z,8.43
2023-05-01T03:15:41.415Z,8.90
2023-05-01T03:18:08.109Z,12.05
2023-05-01T03:20:34.725Z,6.30
2023-05-01T03:23:01.576Z,7.57
2023-05-01T03:25:27.984Z,7.35
2023-05-01T03:27:55.201Z,15.45
2023-05-01T03:30:21.995Z,6.78
2023-05-01T03:32:48.648Z,7.20
2023-05-01T03:35:15.289Z,7.75
2023-05-01T03:37:42.079Z,8.35
2023-05-01T03:40:08.916Z,10.50
2023-05-01T03:42:35.319Z,6.10
2023-05-01T03:45:01.733Z,10.83
2023-05-01T03:47:28.142Z,11.25
2023-05-01T03:49:55.388Z,11.73
2023-05-01T03:52:21.955Z,10.13
2023-05-01T03:54:49.988Z,9.63
2023-05-01T03:57:16.505Z,8.40
2023-05-01T03:59:43.844Z,7.93
2023-05-01T04:02:10.419Z,8.38
2023-05-01T04:04:37.132Z,9.38
2023-05-01T04:07:03.823Z,10.18
2023-05-01T04:09:30.376Z,11.73
2023-05-01T04:11:57.080Z,8.93
2023-05-01T04:14:23.978Z,9.05
2023-05-01T04:16:51.206Z,10.38
2023-05-01T04:19:17.832Z,7.90
2023-05-01T04:21:44.443Z,9.33
2023-05-01T04:24:10.929Z,10.00
2023-05-01T04:26:39.011Z,7.72
2023-05-01T04:29:05.524Z,10.80
2023-05-01T04:31:31.989Z,10.07
2023-05-01T04:33:58.689Z,12.93
2023-05-01T04:36:25.156Z,8.70
2023-05-01T04:38:51.787Z,9.27
2023-05-01T04:41:18.242Z,8.00
2023-05-01T04:43:44.816Z,11.07
2023-05-01T04:46:11.779Z,11.13
2023-05-01T04:48:38.536Z,8.35
2023-05-01T04:51:05.184Z,10.88
2023-05-01T04:53:32.150Z,10.07
2023-05-01T04:55:58.663Z,10.57
2023-05-01T04:58:25.075Z,10.47
2023-05-01T05:00:51.649Z,17.10
2023-05-01T05:03:19.705Z,10.30
2023-05-01T05:05:46.829Z,9.15
2023-05-01T05:08:13.413Z,9.43
2023-05-01T05:10:39.918Z,9.60
2023-05-01T05:13:06.354Z,10.85
2023-05-01T05:15:32.908Z,10.32
2023-05-01T05:17:59.481Z,9.68
2023-05-01T05:20:26.126Z,12.65
2023-05-01T05:22:52.864Z,10.47
2023-05-01T05:25:19.614Z,13.90
2023-05-01T05:27:46.087Z,9.23
2023-05-01T05:30:12.623Z,11.52
2023-05-01T05:32:39.154Z,11.63
2023-05-01T05:35:06.817Z,11.37
2023-05-01T05:37:33.319Z,12.68
2023-05-01T05:39:59.927Z,17.33
2023-05-01T05:42:26.509Z,10.77
2023-05-01T05:44:53.161Z,12.65
2023-05-01T05:47:19.582Z,11.90
2023-05-01T05:49:46.169Z,12.10
2023-05-01T05:52:12.609Z,12.60
2023-05-01T05:54:39.045Z,10.90
2023-05-01T05:57:05.548Z,11.50
2023-05-01T05:59:32.033Z,10.13
2023-05-01T06:01:58.935Z,9.95
2023-05-01T06:04:25.390Z,14.40
2023-05-01T06:06:52.203Z,10.80
2023-05-01T06:09:19.062Z,12.32
2023-05-01T06:11:45.884Z,13.67
2023-05-01T06:14:12.341Z,10.35
2023-05-01T06:16:39.109Z,14.55
2023-05-01T06:19:06.212Z,14.15
2023-05-01T06:21:33.850Z,11.98
2023-05-01T06:24:00.348Z,10.63
2023-05-01T06:26:27.009Z,16.45
2023-05-01T06:28:54.341Z,12.10
2023-05-01T06:31:21.012Z,9.73
2023-05-01T06:33:47.518Z,10.60
2023-05-01T06:36:13.895Z,19.93
2023-05-01T06:38:42.260Z,13.45
2023-05-01T06:41:08.832Z,13.65
2023-05-01T06:43:35.354Z,10.70
2023-05-01T06:46:01.779Z,12.73
2023-05-01T06:48:28.260Z,17.47
2023-05-01T06:50:55.597Z,12.60
2023-05-01T06:53:22.036Z,16.80
2023-05-01T06:55:48.496Z,12.55
2023-05-01T06:58:23.343Z,12.70
2023-05-01T07:00:51.226Z,11.10
2023-05-01T07:03:18.022Z,11.73
2023-05-01T07:05:44.578Z,12.38
2023-05-01T07:08:11.193Z,11.07
2023-05-01T07:10:39.287Z,9.55
2023-05-01T07:13:07.817Z,12.20
2023-05-01T07:15:34.568Z,10.68
2023-05-01T07:18:03.000Z,10.00
2023-05-01T07:20:30.262Z,15.52
2023-05-01T07:22:56.645Z,10.40
2023-05-01T07:25:23.060Z,14.27
2023-05-01T07:27:49.474Z,17.20
2023-05-01T07:30:15.901Z,11.25
2023-05-01T07:32:42.493Z,9.75
2023-05-01T07:35:09.219Z,9.95
2023-05-01T07:37:35.668Z,11.80
2023-05-01T07:40:02.416Z,11.98
2023-05-01T07:42:29.062Z,12.02
2023-05-01T07:44:55.721Z,13.30
2023-05-01T07:47:22.234Z,17.30
2023-05-01T07:49:48.660Z,10.60
2023-05-01T07:52:15.588Z,17.30
2023-05-01T07:54:42.179Z,15.90
2023-05-01T07:57:08.781Z,16.33
2023-05-01T07:59:35.438Z,13.07
2023-05-01T08:02:02.040Z,13.57
2023-05-01T08:04:29.518Z,12.05
2023-05-01T08:06:56.151Z,14.80
2023-05-01T08:09:22.758Z,10.52
2023-05-01T08:11:49.160Z,14.00
2023-05-01T08:14:17.648Z,17.47
2023-05-01T08:16:44.619Z,10.45
2023-05-01T08:19:11.252Z,15.52
2023-05-01T08:21:37.791Z,13.90
2023-05-01T08:24:04.430Z,12.10
2023-05-01T08:26:30.842Z,12.53
2023-05-01T08:28:57.296Z,13.95
2023-05-01T08:31:25.362Z,11.40
2023-05-01T08:33:52.038Z,20.42
2023-05-01T08:36:19.489Z,17.95
2023-05-01T08:38:47.640Z,12.73
2023-05-01T08:41:20.646Z,14.60
2023-05-01T08:43:47.504Z,14.50
2023-05-01T08:46:16.393Z,14.55
2023-05-01T08:48:43.436Z,12.00
2023-05-01T08:51:10.178Z,14.57
2023-05-01T08:53:37.756Z,11.95
2023-05-01T08:56:06.455Z,12.00
2023-05-01T08:58:34.316Z,15.88
2023-05-01T09:01:03.132Z,13.82
2023-05-01T09:03:32.092Z,14.23
2023-05-01T09:06:00.033Z,14.77
2023-05-01T09:08:26.469Z,12.48
2023-05-01T09:10:54.291Z,16.88
2023-05-01T09:13:20.803Z,14.80
2023-05-01T09:15:47.264Z,11.80
2023-05-01T09:18:13.870Z,12.43
2023-05-01T09:20:40.561Z,10.88
2023-05-01T09:23:07.046Z,15.25
2023-05-01T09:25:33.724Z,11.25
2023-05-01T09:28:00.138Z,15.53
2023-05-01T09:30:30.450Z,14.40
2023-05-01T09:33:06.247Z,11.85
2023-05-01T09:35:34.115Z,19.08
2023-05-01T09:38:00.594Z,16.45
2023-05-01T09:40:27.842Z,11.63
2023-05-01T09:42:58.070Z,13.10
2023-05-01T09:45:26.753Z,12.45
2023-05-01T09:48:10.821Z,15.23
2023-05-01T09:50:37.530Z,16.50
2023-05-01T09:53:05.222Z,23.17
2023-05-01T09:55:32.228Z,20.70
2023-05-01T09:57:59.092Z,14.85
2023-05-01T10:00:25.612Z,13.63
2023-05-01T10:02:52.476Z,16.00
2023-05-01T10:05:19.457Z,11.40
2023-05-01T10:07:57.369Z,12.88
2023-05-01T10:10:23.925Z,14.00
2023-05-01T10:12:50.476Z,15.45
2023-05-01T10:15:25.315Z,13.32
2023-05-01T10:17:53.786Z,11.63
2023-05-01T10:20:21.020Z,16.80
2023-05-01T10:22:48.061Z,13.15
2023-05-01T10:25:15.129Z,14.23
2023-05-01T10:27:41.952Z,16.42
2023-05-01T10:30:09.700Z,16.93
2023-05-01T10:32:37.674Z,14.57
2023-05-01T10:35:12.860Z,17.02
2023-05-01T10:37:44.349Z,18.23
2023-05-01T10:40:33.851Z,13.02
2023-05-01T10:43:19.026Z,14.27
2023-05-01T10:45:46.272Z,16.58
2023-05-01T10:48:13.270Z,15.63
2023-05-01T10:50:58.656Z,18.35
2023-05-01T10:53:25.213Z,16.15
2023-05-01T10:55:51.821Z,13.77
2023-05-01T10:58:36.814Z,17.20
2023-05-01T11:01:22.415Z,14.95
2023-05-01T11:03:48.937Z,17.83
2023-05-01T11:06:15.453Z,17.95
2023-05-01T11:08:42.045Z,22.53
2023-05-01T11:11:23.721Z,20.20
2023-05-01T11:14:02.540Z,14.80
2023-05-01T11:16:38.510Z,19.90
2023-05-01T11:19:12.437Z,18.48
2023-05-01T11:21:40.497Z,16.77
2023-05-01T11:24:09.374Z,20.80
2023-05-01T11:26:40.040Z,18.35
2023-05-01T11:29:06.948Z,25.80
2023-05-01T11:31:33.689Z,15.55
2023-05-01T11:34:00.484Z,20.53
2023-05-01T11:36:27.437Z,17.48
2023-05-01T11:38:56.605Z,20.88
2023-05-01T11:41:23.587Z,19.92
2023-05-01T11:43:58.081Z,16.63
2023-05-01T11:46:28.020Z,17.07
2023-05-01T11:48:54.821Z,15.80
2023-05-01T11:51:21.276Z,18.38
2023-05-01T11:54:05.957Z,17.77
2023-05-01T11:56:32.841Z,19.00
2023-05-01T11:59:00.703Z,15.27
2023-05-01T12:01:34.114Z,13.80
2023-05-01T12:04:00.730Z,16.73
2023-05-01T12:06:43.977Z,15.00
2023-05-01T12:09:11.114Z,15.85
2023-05-01T12:11:39.309Z,16.03
2023-05-01T12:14:06.003Z,14.65
2023-05-01T12:16:32.616Z,11.93
2023-05-01T12:18:59.297Z,15.45
2023-05-01T12:21:26.952Z,11.90
2023-05-01T12:23:54.764Z,11.43
2023-05-01T12:26:23.713Z,14.23
2023-05-01T12:28:57.013Z,11.50
2023-05-01T12:31:24.234Z,10.88
2023-05-01T12:33:55.318Z,13.50
2023-05-01T12:36:25.336Z,13.10
2023-05-01T12:38:59.190Z,10.35
2023-05-01T12:41:34.921Z,13.20
2023-05-01T12:44:01.743Z,11.90
2023-05-01T12:46:28.366Z,10.95
2023-05-01T12:48:55.392Z,10.47
2023-05-01T12:51:22.405Z,8.73
2023-05-01T12:53:49.213Z,10.50
2023-05-01T12:56:25.045Z,14.65
2023-05-01T12:58:53.496Z,9.38
2023-05-01T13:01:24.862Z,12.43
2023-05-01T13:03:51.631Z,12.63
2023-05-01T13:06:18.111Z,9.95
2023-05-01T13:08:44.790Z,9.68
2023-05-01T13:11:16.102Z,9.90
2023-05-01T13:13:46.141Z,12.40
2023-05-01T13:16:13.776Z,10.45
2023-05-01T13:18:50.851Z,12.07
2023-05-01T13:21:26.809Z,11.75
2023-05-01T13:23:57.293Z,10.80
2023-05-01T13:26:33.723Z,10.13
2023-05-01T13:29:02.039Z,11.05
2023-05-01T13:31:29.372Z,12.95
2023-05-01T13:33:57.412Z,10.23
2023-05-01T13:36:26.677Z,11.45
2023-05-01T13:38:54.625Z,12.00
2023-05-01T13:41:21.751Z,15.55
2023-05-01T13:43:52.514Z,12.93
2023-05-01T13:46:20.214Z,12.48
2023-05-01T13:48:47.730Z,15.25
2023-05-01T13:51:15.061Z,20.60
2023-05-01T13:53:42.325Z,16.52
2023-05-01T13:56:09.908Z,19.45
2023-05-01T13:58:36.799Z,18.88
2023-05-01T14:01:04.078Z,17.10
2023-05-01T14:03:36.703Z,19.40
2023-05-01T14:06:04.522Z,27.45
2023-05-01T14:08:31.130Z,21.25
2023-05-01T14:10:58.408Z,21.33
2023-05-01T14:13:26.884Z,24.70
2023-05-01T14:15:53.427Z,22.47
2023-05-01T14:18:20.840Z,21.38
2023-05-01T14:20:48.044Z,25.02
2023-05-01T14:23:16.860Z,25.65
2023-05-01T14:25:44.643Z,26.25
2023-05-01T14:28:12.373Z,30.80
2023-05-01T14:30:39.772Z,24.23
2023-05-01T14:33:07.784Z,23.45
2023-05-01T14:35:34.760Z,25.75
2023-05-01T14:38:08.044Z,32.60
2023-05-01T14:40:34.762Z,22.60
2023-05-01T14:43:01.672Z,20.50
2023-05-01T14:45:28.292Z,21.48
2023-05-01T14:47:54.762Z,19.65
2023-05-01T14:50:22.648Z,25.30
2023-05-01T14:52:58.427Z,18.90
2023-05-01T14:55:33.499Z,17.92
2023-05-01T14:58:01.189Z,17.27
2023-05-01T15:00:28.010Z,20.70
2023-05-01T15:02:57.799Z,18.05
2023-05-01T15:05:26.226Z,20.73
2023-05-01T15:07:54.889Z,18.13
2023-05-01T15:10:23.430Z,20.23
2023-05-01T15:12:50.252Z,17.58
2023-05-01T15:15:17.123Z,17.98
2023-05-01T15:17:43.790Z,18.70
2023-05-01T15:20:11.263Z,16.98
2023-05-01T15:22:39.623Z,17.45
2023-05-01T15:25:07.845Z,16.13
2023-05-01T15:27:34.219Z,19.58
2023-05-01T15:30:00.782Z,21.87
2023-05-01T15:32:27.454Z,18.50
2023-05-01T15:34:56.990Z,21.13
2023-05-01T15:37:24.011Z,17.70
2023-05-01T15:39:51.710Z,24.25
2023-05-01T15:42:18.565Z,18.33
2023-05-01T15:44:45.013Z,22.38
2023-05-01T15:47:11.485Z,22.10
2023-05-01T15:49:38.142Z,20.83
2023-05-01T15:52:04.693Z,23.85
2023-05-01T15:54:31.199Z,25.30
2023-05-01T15:56:58.465Z,24.80
2023-05-01T15:59:25.685Z,24.67
2023-05-01T16:01:52.842Z,24.17
2023-05-01T16:04:19.300Z,22.52
2023-05-01T16:06:46.016Z,26.87
2023-05-01T16:09:13.070Z,25.80
2023-05-01T16:11:39.749Z,25.65
2023-05-01T16:14:09.658Z,27.42
2023-05-01T16:16:36.314Z,30.25
2023-05-01T16:19:02.838Z,29.60
2023-05-01T16:21:29.257Z,29.15
2023-05-01T16:23:56.643Z,25.88
2023-05-01T16:26:28.380Z,27.88
2023-05-01T16:28:58.567Z,27.13
2023-05-01T16:31:27.455Z,24.53
2023-05-01T16:33:54.799Z,28.13
2023-05-01T16:36:21.468Z,27.25
2023-05-01T16:38:47.894Z,27.00
2023-05-01T16:41:17.671Z,26.95
2023-05-01T16:43:44.738Z,33.20
2023-05-01T16:46:12.311Z,29.63
2023-05-01T16:48:39.108Z,29.20
2023-05-01T16:51:06.592Z,29.17
2023-05-01T16:53:33.023Z,29.73
2023-05-01T16:55:59.451Z,31.00
2023-05-01T16:58:26.609Z,31.40
2023-05-01T17:00:53.505Z,36.28
2023-05-01T17:03:19.980Z,30.95
2023-05-01T17:05:46.403Z,31.02
2023-05-01T17:08:12.849Z,28.43
2023-05-01T17:10:39.336Z,28.92
2023-05-01T17:13:07.773Z,33.05
2023-05-01T17:15:34.476Z,31.17
2023-05-01T17:18:00.975Z,37.78
2023-05-01T17:20:27.633Z,35.17
2023-05-01T17:22:54.253Z,35.97
2023-05-01T17:25:20.909Z,40.78
2023-05-01T17:27:47.495Z,37.67
2023-05-01T17:30:14.063Z,41.38
2023-05-01T17:32:40.595Z,43.80
2023-05-01T17:35:07.348Z,46.30
2023-05-01T17:37:33.933Z,42.63
2023-05-01T17:40:00.536Z,43.78
2023-05-01T17:42:27.320Z,41.63
2023-05-01T17:44:53.921Z,45.93
2023-05-01T17:47:20.505Z,43.95
2023-05-01T17:49:46.922Z,38.92
2023-05-01T17:52:13.383Z,49.80
2023-05-01T17:54:39.898Z,41.30
2023-05-01T17:57:08.216Z,43.40
2023-05-01T17:59:34.735Z,43.70
2023-05-01T18:02:01.213Z,39.67
2023-05-01T18:04:27.771Z,44.10
2023-05-01T18:06:56.266Z,45.88
2023-05-01T18:09:22.978Z,37.60
2023-05-01T18:11:49.500Z,40.47
2023-05-01T18:14:15.901Z,36.85
2023-05-01T18:16:42.427Z,38.95
2023-05-01T18:19:09.013Z,38.47
2023-05-01T18:21:35.463Z,38.63
2023-05-01T18:24:05.092Z,39.15
2023-05-01T18:26:32.970Z,37.38
2023-05-01T18:28:59.435Z,39.55
2023-05-01T18:31:26.601Z,37.50
2023-05-01T18:33:53.106Z,43.53
2023-05-01T18:36:19.639Z,39.80
2023-05-01T18:38:46.203Z,35.90
2023-05-01T18:41:12.625Z,37.22
2023-05-01T18:43:39.195Z,45.83
2023-05-01T18:46:05.658Z,44.50
2023-05-01T18:48:32.240Z,42.72
2023-05-01T18:51:08.393Z,37.67
2023-05-01T18:53:35.814Z,42.60
2023-05-01T18:56:02.279Z,41.40
2023-05-01T18:58:28.770Z,36.87
2023-05-01T19:00:55.160Z,42.75
2023-05-01T19:03:21.712Z,40.58
2023-05-01T19:05:48.282Z,36.60
2023-05-01T19:08:14.908Z,31.73
2023-05-01T19:10:42.516Z,39.20
2023-05-01T19:13:08.929Z,40.53
2023-05-01T19:15:35.450Z,35.35
2023-05-01T19:18:02.567Z,49.75
2023-05-01T19:20:29.364Z,37.33
2023-05-01T19:22:55.860Z,39.60
2023-05-01T19:25:22.321Z,35.50
2023-05-01T19:27:50.967Z,43.90
2023-05-01T19:30:17.868Z,38.13
2023-05-01T19:32:45.040Z,38.40
2023-05-01T19:35:11.717Z,38.83
2023-05-01T19:37:38.685Z,47.40
2023-05-01T19:40:06.480Z,39.03
2023-05-01T19:42:33.251Z,40.25
2023-05-01T19:44:59.704Z,45.33
2023-05-01T19:47:26.308Z,52.10
2023-05-01T19:49:52.897Z,46.28
2023-05-01T19:52:19.722Z,55.00
2023-05-01T19:54:46.208Z,53.20
2023-05-01T19:57:13.002Z,52.17
2023-05-01T19:59:41.324Z,50.10
2023-05-01T20:02:08.042Z,50.42
2023-05-01T20:04:34.562Z,50.15
2023-05-01T20:07:02.736Z,49.80
2023-05-01T20:09:29.170Z,54.95
2023-05-01T20:11:55.712Z,50.63
2023-05-01T20:14:22.350Z,54.55
2023-05-01T20:16:53.088Z,54.97
2023-05-01T20:19:19.962Z,52.17
2023-05-01T20:21:47.500Z,56.80
2023-05-01T20:24:13.953Z,56.60
2023-05-01T20:26:40.391Z,65.50
2023-05-01T20:29:06.801Z,56.95
2023-05-01T20:31:34.544Z,55.83
2023-05-01T20:34:01.162Z,63.42
2023-05-01T20:36:28.009Z,56.87
2023-05-01T20:38:57.702Z,60.45
2023-05-01T20:41:24.554Z,65.65
2023-05-01T20:43:51.140Z,62.83
2023-05-01T20:46:18.208Z,57.67
2023-05-01T20:48:45.133Z,56.23
2023-05-01T20:51:12.094Z,50.20
2023-05-01T20:53:38.770Z,61.85
2023-05-01T20:56:05.519Z,60.15
2023-05-01T20:58:32.113Z,63.58
2023-05-01T21:00:58.909Z,53.63
2023-05-01T21:03:25.623Z,61.03
2023-05-01T21:05:52.213Z,63.08
2023-05-01T21:08:19.453Z,54.38
2023-05-01T21:10:45.872Z,50.90
2023-05-01T21:13:12.361Z,57.40
2023-05-01T21:15:40.827Z,52.00
2023-05-01T21:18:08.630Z,50.03
2023-05-01T21:20:35.347Z,53.67
2023-05-01T21:23:02.259Z,49.15
2023-05-01T21:25:30.039Z,50.87
2023-05-01T21:27:56.558Z,56.95
2023-05-01T21:30:35.583Z,50.65
2023-05-01T21:33:04.138Z,59.33
2023-05-01T21:35:30.931Z,58.25
2023-05-01T21:37:57.985Z,57.50
2023-05-01T21:40:24.961Z,49.83
2023-05-01T21:42:52.980Z,55.72
2023-05-01T21:45:20.098Z,55.35
2023-05-01T21:47:48.916Z,57.05
2023-05-01T21:50:16.720Z,57.27
2023-05-01T21:52:43.909Z,53.35
2023-05-01T21:55:11.893Z,52.88
2023-05-01T21:57:39.179Z,51.45
2023-05-01T22:00:09.450Z,52.45
2023-05-01T22:02:40.607Z,49.77
2023-05-01T22:05:07.924Z,51.03
2023-05-01T22:07:35.036Z,53.30
2023-05-01T22:10:01.868Z,42.35
2023-05-01T22:12:28.469Z,50.33
2023-05-01T22:14:55.324Z,44.50
2023-05-01T22:17:24.150Z,50.50
2023-05-01T22:19:51.624Z,48.50
2023-05-01T22:22:18.379Z,50.60
2023-05-01T22:24:45.017Z,46.50
2023-05-01T22:27:11.586Z,50.33
2023-05-01T22:29:37.973Z,46.72
2023-05-01T22:32:04.923Z,50.08
2023-05-01T22:34:31.408Z,52.33
2023-05-01T22:36:57.804Z,50.58
2023-05-01T22:39:24.282Z,52.37
2023-05-01T22:41:50.708Z,50.70
2023-05-01T22:44:17.148Z,54.67
2023-05-01T22:46:44.492Z,57.10
2023-05-01T22:49:11.098Z,52.08
2023-05-01T22:51:37.696Z,53.37
2023-05-01T22:54:04.180Z,53.53
2023-05-01T22:56:30.679Z,58.20
2023-05-01T22:58:57.124Z,57.92
2023-05-01T23:01:23.765Z,48.38
2023-05-01T23:03:50.895Z,45.37
2023-05-01T23:06:18.416Z,48.80
2023-05-01T23:08:44.934Z,51.53
2023-05-01T23:11:12.073Z,54.20
2023-05-01T23:13:42.086Z,52.67
2023-05-01T23:16:08.670Z,54.47
2023-05-01T23:18:39.657Z,57.55
2023-05-01T23:21:06.128Z,53.58
2023-05-01T23:23:34.797Z,50.30
2023-05-01T23:26:01.642Z,44.80
2023-05-01T23:28:28.648Z,45.57
2023-05-01T23:30:57.879Z,44.53
2023-05-01T23:33:25.253Z,52.67
2023-05-01T23:35:51.734Z,46.80
2023-05-01T23:38:18.506Z,53.10
2023-05-01T23:40:45.605Z,46.80
2023-05-01T23:43:12.519Z,49.03
2023-05-01T23:45:39.736Z,49.88
2023-05-01T23:48:06.509Z,54.70
2023-05-01T23:50:33.136Z,55.05
2023-05-01T23:53:02.608Z,64.07
2023-05-01T23:55:29.085Z,58.15
2023-05-01T23:57:55.565Z,54.13
